sensor_id;sensor_type;location;lat;lon;timestamp;P1;durP1;ratioP1;P2;durP2;ratioP2
5678;SDS011;2862;52.560;13.566;2022-11-23T00:02:53;106.47;;;28.87;;
5678;SDS011;2862;52.560;13.566;2022-11-23T00:12:55;118.07;;;31.77;;
5678;SDS011;2862;52.560;13.566;2022-11-23T00:23:00;112.03;;;31.70;;
5678;SDS011;2862;52.560;13.566;2022-11-23T00:33:03;109.83;;;30.00;;
5678;SDS011;2862;52.560;13.566;2022-11-23T00:43:07;98.93;;;28.83;;
5678;SDS011;2862;52.560;13.566;2022-11-23T00:53:10;98.87;;;29.73;;
5678;SDS011;2862;52.560;13.566;2022-11-23T01:03:15;122.03;;;31.97;;
5678;SDS011;2862;52.560;13.566;2022-11-23T01:13:18;99.63;;;32.00;;
5678;SDS011;2862;52.560;13.566;2022-11-23T01:23:23;104.43;;;30.30;;
5678;SDS011;2862;52.560;13.566;2022-11-23T01:33:26;97.47;;;31.37;;
5678;SDS011;2862;52.560;13.566;2022-11-23T01:43:30;90.60;;;28.57;;
5678;SDS011;2862;52.560;13.566;2022-11-23T01:53:33;93.40;;;30.30;;
5678;SDS011;2862;52.560;13.566;2022-11-23T02:03:38;108.13;;;30.10;;
5678;SDS011;2862;52.560;13.566;2022-11-23T02:13:44;101.03;;;30.40;;
5678;SDS011;2862;52.560;13.566;2022-11-23T02:23:53;96.13;;;33.33;;
5678;SDS011;2862;52.560;13.566;2022-11-23T02:34:02;101.90;;;31.10;;
5678;SDS011;2862;52.560;13.566;2022-11-23T02:44:12;98.13;;;29.10;;
5678;SDS011;2862;52.560;13.566;2022-11-23T02:54:24;101.90;;;29.90;;
5678;SDS011;2862;52.560;13.566;2022-11-23T03:04:27;88.43;;;29.13;;
5678;SDS011;2862;52.560;13.566;2022-11-23T03:14:32;89.83;;;29.30;;
5678;SDS011;2862;52.560;13.566;2022-11-23T03:24:35;101.27;;;30.30;;
5678;SDS011;2862;52.560;13.566;2022-11-23T03:34:41;84.50;;;27.57;;
5678;SDS011;2862;52.560;13.566;2022-11-23T03:44:44;89.73;;;30.00;;
5678;SDS011;2862;52.560;13.566;2022-11-23T03:54:49;92.37;;;27.17;;
5678;SDS011;2862;52.560;13.566;2022-11-23T04:04:52;76.80;;;25.63;;
5678;SDS011;2862;52.560;13.566;2022-11-23T04:15:15;88.60;;;28.83;;
5678;SDS011;2862;52.560;13.566;2022-11-23T04:25:19;94.87;;;27.53;;
5678;SDS011;2862;52.560;13.566;2022-11-23T04:35:26;95.07;;;29.40;;
5678;SDS011;2862;52.560;13.566;2022-11-23T04:45:29;85.73;;;28.27;;
5678;SDS011;2862;52.560;13.566;2022-11-23T04:55:38;88.63;;;28.13;;
5678;SDS011;2862;52.560;13.566;2022-11-23T05:05:43;84.17;;;26.90;;
5678;SDS011;2862;52.560;13.566;2022-11-23T05:15:48;88.03;;;27.47;;
5678;SDS011;2862;52.560;13.566;2022-11-23T05:25:57;96.10;;;27.07;;
5678;SDS011;2862;52.560;13.566;2022-11-23T05:36:02;87.97;;;28.67;;
5678;SDS011;2862;52.560;13.566;2022-11-23T05:46:10;89.60;;;27.60;;
5678;SDS011;2862;52.560;13.566;2022-11-23T05:56:15;85.27;;;27.87;;
5678;SDS011;2862;52.560;13.566;2022-11-23T06:06:31;84.83;;;28.20;;
5678;SDS011;2862;52.560;13.566;2022-11-23T06:16:35;86.07;;;28.00;;
5678;SDS011;2862;52.560;13.566;2022-11-23T06:26:54;78.77;;;25.37;;
5678;SDS011;2862;52.560;13.566;2022-11-23T06:36:58;84.37;;;26.50;;
5678;SDS011;2862;52.560;13.566;2022-11-23T06:47:02;79.13;;;25.63;;
5678;SDS011;2862;52.560;13.566;2022-11-23T06:57:07;80.00;;;24.97;;
5678;SDS011;2862;52.560;13.566;2022-11-23T07:07:11;71.17;;;23.43;;
5678;SDS011;2862;52.560;13.566;2022-11-23T07:17:24;74.97;;;24.90;;
5678;SDS011;2862;52.560;13.566;2022-11-23T07:27:27;83.87;;;28.57;;
5678;SDS011;2862;52.560;13.566;2022-11-23T07:37:32;78.73;;;28.50;;
5678;SDS011;2862;52.560;13.566;2022-11-23T07:47:35;80.33;;;24.63;;
5678;SDS011;2862;52.560;13.566;2022-11-23T07:57:40;78.77;;;27.40;;
5678;SDS011;2862;52.560;13.566;2022-11-23T08:07:43;69.80;;;23.40;;
5678;SDS011;2862;52.560;13.566;2022-11-23T08:17:47;63.17;;;23.33;;
5678;SDS011;2862;52.560;13.566;2022-11-23T08:27:53;71.63;;;29.70;;
5678;SDS011;2862;52.560;13.566;2022-11-23T08:37:57;54.77;;;21.00;;
5678;SDS011;2862;52.560;13.566;2022-11-23T08:48:00;54.77;;;21.27;;
5678;SDS011;2862;52.560;13.566;2022-11-23T08:58:06;48.27;;;20.60;;
5678;SDS011;2862;52.560;13.566;2022-11-23T09:08:13;59.50;;;21.00;;
5678;SDS011;2862;52.560;13.566;2022-11-23T09:18:18;52.50;;;19.20;;
5678;SDS011;2862;52.560;13.566;2022-11-23T09:28:21;52.10;;;19.10;;
5678;SDS011;2862;52.560;13.566;2022-11-23T09:38:27;58.80;;;21.60;;
5678;SDS011;2862;52.560;13.566;2022-11-23T09:48:48;48.50;;;21.43;;
5678;SDS011;2862;52.560;13.566;2022-11-23T09:59:09;54.23;;;22.30;;
5678;SDS011;2862;52.560;13.566;2022-11-23T10:09:18;54.20;;;21.67;;
5678;SDS011;2862;52.560;13.566;2022-11-23T10:19:37;63.43;;;19.70;;
5678;SDS011;2862;52.560;13.566;2022-11-23T10:29:54;52.43;;;23.37;;
5678;SDS011;2862;52.560;13.566;2022-11-23T10:39:58;47.30;;;20.20;;
5678;SDS011;2862;52.560;13.566;2022-11-23T10:50:01;50.70;;;18.73;;
5678;SDS011;2862;52.560;13.566;2022-11-23T11:00:13;58.60;;;22.10;;
5678;SDS011;2862;52.560;13.566;2022-11-23T11:10:31;48.57;;;19.23;;
5678;SDS011;2862;52.560;13.566;2022-11-23T11:20:43;48.63;;;20.50;;
5678;SDS011;2862;52.560;13.566;2022-11-23T11:30:49;51.70;;;20.17;;
5678;SDS011;2862;52.560;13.566;2022-11-23T11:41:06;51.13;;;20.00;;
5678;SDS011;2862;52.560;13.566;2022-11-23T11:51:12;53.67;;;20.73;;
5678;SDS011;2862;52.560;13.566;2022-11-23T12:01:27;46.47;;;18.47;;
5678;SDS011;2862;52.560;13.566;2022-11-23T12:11:36;43.07;;;17.87;;
5678;SDS011;2862;52.560;13.566;2022-11-23T12:21:48;43.50;;;17.70;;
5678;SDS011;2862;52.560;13.566;2022-11-23T12:32:22;54.37;;;17.07;;
5678;SDS011;2862;52.560;13.566;2022-11-23T12:42:33;43.77;;;17.90;;
5678;SDS011;2862;52.560;13.566;2022-11-23T12:52:46;48.60;;;18.87;;
5678;SDS011;2862;52.560;13.566;2022-11-23T13:03:08;48.17;;;18.50;;
5678;SDS011;2862;52.560;13.566;2022-11-23T13:13:36;45.10;;;18.37;;
5678;SDS011;2862;52.560;13.566;2022-11-23T13:23:52;43.80;;;17.70;;
5678;SDS011;2862;52.560;13.566;2022-11-23T13:33:56;39.00;;;15.20;;
5678;SDS011;2862;52.560;13.566;2022-11-23T13:44:10;48.83;;;18.30;;
5678;SDS011;2862;52.560;13.566;2022-11-23T13:54:17;49.83;;;20.00;;
5678;SDS011;2862;52.560;13.566;2022-11-23T14:04:23;54.00;;;24.00;;
5678;SDS011;2862;52.560;13.566;2022-11-23T14:14:28;58.40;;;24.07;;
5678;SDS011;2862;52.560;13.566;2022-11-23T14:24:43;69.63;;;24.70;;
5678;SDS011;2862;52.560;13.566;2022-11-23T14:35:08;63.10;;;24.07;;
5678;SDS011;2862;52.560;13.566;2022-11-23T14:45:26;63.33;;;26.10;;
5678;SDS011;2862;52.560;13.566;2022-11-23T14:55:31;60.50;;;24.60;;
5678;SDS011;2862;52.560;13.566;2022-11-23T15:05:35;65.93;;;23.60;;
5678;SDS011;2862;52.560;13.566;2022-11-23T15:15:43;56.43;;;21.87;;
5678;SDS011;2862;52.560;13.566;2022-11-23T15:25:51;53.03;;;20.70;;
5678;SDS011;2862;52.560;13.566;2022-11-23T15:35:54;58.00;;;21.53;;
5678;SDS011;2862;52.560;13.566;2022-11-23T15:46:00;57.60;;;21.73;;
5678;SDS011;2862;52.560;13.566;2022-11-23T15:56:10;62.17;;;24.93;;
5678;SDS011;2862;52.560;13.566;2022-11-23T16:06:27;62.83;;;23.60;;
5678;SDS011;2862;52.560;13.566;2022-11-23T16:16:36;66.27;;;24.97;;
5678;SDS011;2862;52.560;13.566;2022-11-23T16:26:44;65.13;;;25.07;;
5678;SDS011;2862;52.560;13.566;2022-11-23T16:36:47;70.70;;;27.07;;
5678;SDS011;2862;52.560;13.566;2022-11-23T16:46:51;79.73;;;30.17;;
5678;SDS011;2862;52.560;13.566;2022-11-23T16:56:54;85.03;;;33.23;;
5678;SDS011;2862;52.560;13.566;2022-11-23T17:06:59;93.27;;;37.13;;
5678;SDS011;2862;52.560;13.566;2022-11-23T17:17:02;92.90;;;38.53;;
5678;SDS011;2862;52.560;13.566;2022-11-23T17:27:08;95.23;;;37.53;;
5678;SDS011;2862;52.560;13.566;2022-11-23T17:37:15;86.43;;;36.03;;
5678;SDS011;2862;52.560;13.566;2022-11-23T17:47:23;97.10;;;36.30;;
5678;SDS011;2862;52.560;13.566;2022-11-23T17:57:28;102.57;;;39.47;;
5678;SDS011;2862;52.560;13.566;2022-11-23T18:07:32;101.67;;;38.03;;
5678;SDS011;2862;52.560;13.566;2022-11-23T18:17:35;96.00;;;38.47;;
5678;SDS011;2862;52.560;13.566;2022-11-23T18:27:40;95.47;;;37.40;;
5678;SDS011;2862;52.560;13.566;2022-11-23T18:37:43;94.13;;;36.63;;
5678;SDS011;2862;52.560;13.566;2022-11-23T18:47:47;90.27;;;36.93;;
5678;SDS011;2862;52.560;13.566;2022-11-23T18:57:51;92.20;;;36.47;;
5678;SDS011;2862;52.560;13.566;2022-11-23T19:07:58;101.80;;;42.20;;
5678;SDS011;2862;52.560;13.566;2022-11-23T19:18:04;91.10;;;37.87;;
5678;SDS011;2862;52.560;13.566;2022-11-23T19:28:08;90.17;;;36.60;;
5678;SDS011;2862;52.560;13.566;2022-11-23T19:38:12;91.70;;;36.00;;
5678;SDS011;2862;52.560;13.566;2022-11-23T19:48:18;98.30;;;39.20;;
5678;SDS011;2862;52.560;13.566;2022-11-23T19:58:23;98.43;;;39.50;;
5678;SDS011;2862;52.560;13.566;2022-11-23T20:08:27;107.43;;;40.97;;
5678;SDS011;2862;52.560;13.566;2022-11-23T20:18:30;99.83;;;41.60;;
5678;SDS011;2862;52.560;13.566;2022-11-23T20:28:35;103.00;;;42.00;;
5678;SDS011;2862;52.560;13.566;2022-11-23T20:38:38;106.87;;;39.57;;
5678;SDS011;2862;52.560;13.566;2022-11-23T20:48:43;121.00;;;45.93;;
5678;SDS011;2862;52.560;13.566;2022-11-23T20:58:57;123.23;;;49.07;;
5678;SDS011;2862;52.560;13.566;2022-11-23T21:09:02;130.17;;;48.10;;
5678;SDS011;2862;52.560;13.566;2022-11-23T21:19:06;136.20;;;50.67;;
5678;SDS011;2862;52.560;13.566;2022-11-23T21:29:11;134.17;;;49.50;;
5678;SDS011;2862;52.560;13.566;2022-11-23T21:39:14;128.63;;;49.10;;
5678;SDS011;2862;52.560;13.566;2022-11-23T21:49:18;145.77;;;56.20;;
5678;SDS011;2862;52.560;13.566;2022-11-23T21:59:21;138.47;;;51.97;;
5678;SDS011;2862;52.560;13.566;2022-11-23T22:09:26;149.33;;;55.60;;
5678;SDS011;2862;52.560;13.566;2022-11-23T22:19:31;151.70;;;55.33;;
5678;SDS011;2862;52.560;13.566;2022-11-23T22:29:36;153.60;;;56.43;;
5678;SDS011;2862;52.560;13.566;2022-11-23T22:39:39;169.40;;;56.80;;
5678;SDS011;2862;52.560;13.566;2022-11-23T22:49:43;235.97;;;59.97;;
5678;SDS011;2862;52.560;13.566;2022-11-23T22:59:47;224.43;;;60.27;;
5678;SDS011;2862;52.560;13.566;2022-11-23T23:09:51;197.50;;;59.13;;
5678;SDS011;2862;52.560;13.566;2022-11-23T23:19:54;193.17;;;62.43;;
5678;SDS011;2862;52.560;13.566;2022-11-23T23:30:02;258.37;;;61.93;;
5678;SDS011;2862;52.560;13.566;2022-11-23T23:40:06;190.90;;;59.00;;
5678;SDS011;2862;52.560;13.566;2022-11-23T23:50:10;212.30;;;62.07;;
